Time;durP1;ratioP1;P1;durP2;ratioP2;P2;SDS_P1;SDS_P2;PMS_P1;PMS_P2;Temp;Humidity;BMP_temperature;BMP_pressure;BME280_temperature;BME280_humidity;BME280_pressure;Samples;Min_cycle;Max_cycle;Signal;HPM_P1;HPM_P2
2023/03/10 00:01:33;;;;;;;17.57;9.03;;;;;;;-145.03;100.00;76653.66;5043034;28;20250;-73
2023/03/10 00:04:01;;;;;;;19.43;9.90;;;;;;;-145.03;100.00;76657.66;5044480;28;20195;-75
2023/03/10 00:06:29;;;;;;;17.40;9.10;;;;;;;-145.03;100.00;76657.66;5048521;28;20211;-74
2023/03/10 00:08:58;;;;;;;19.37;9.23;;;;;;;-145.03;100.00;76661.66;5043189;28;20308;-75
2023/03/10 00:11:24;;;;;;;19.17;9.10;;;;;;;-145.03;100.00;76653.66;5038648;28;20199;-73
2023/03/10 00:13:51;;;;;;;17.43;9.30;;;;;;;-145.03;100.00;76647.69;5040093;28;20660;-72
2023/03/10 00:16:20;;;;;;;21.00;10.47;;;;;;;-145.03;100.00;76645.69;5056290;28;20881;-75
2023/03/10 00:18:46;;;;;;;22.80;10.93;;;;;;;-145.03;100.00;76637.69;5043163;28;20215;-72
2023/03/10 00:21:15;;;;;;;18.97;9.37;;;;;;;-145.03;100.00;76635.69;5043360;28;20212;-73
2023/03/10 00:23:41;;;;;;;15.63;9.10;;;;;;;-145.03;100.00;76635.69;5042947;28;20199;-73
2023/03/10 00:26:11;;;;;;;17.37;8.53;;;;;;;-145.03;100.00;76627.72;5040932;28;20219;-74
2023/03/10 00:28:39;;;;;;;20.00;10.13;;;;;;;-145.03;100.00;76621.72;5040484;28;20262;-75
2023/03/10 00:31:07;;;;;;;16.70;8.70;;;;;;;-145.03;100.00;76619.72;5043248;28;20196;-73
2023/03/10 00:33:35;;;;;;;16.57;9.03;;;;;;;-145.03;100.00;76615.75;5041959;28;20195;-73
2023/03/10 00:36:08;;;;;;;17.47;9.23;;;;;;;-145.03;100.00;76617.72;5044818;28;20199;-72
2023/03/10 00:38:36;;;;;;;18.43;9.17;;;;;;;-145.03;100.00;76619.72;5052060;28;20309;-72
2023/03/10 00:41:05;;;;;;;18.03;9.83;;;;;;;-145.03;100.00;76603.75;5043326;28;20334;-72
2023/03/10 00:43:34;;;;;;;18.87;9.70;;;;;;;-145.03;100.00;76593.78;5045571;28;20200;-73
2023/03/10 00:46:02;;;;;;;19.63;9.30;;;;;;;-145.03;100.00;76585.81;5039403;28;20203;-76
2023/03/10 00:48:29;;;;;;;17.37;9.20;;;;;;;-145.03;100.00;76577.81;5057012;28;20595;-72
2023/03/10 00:50:56;;;;;;;16.90;9.43;;;;;;;-145.03;100.00;76571.81;5043876;28;20610;-72
2023/03/10 00:53:23;;;;;;;15.60;8.77;;;;;;;-145.03;100.00;76577.81;5046209;28;20196;-72
2023/03/10 00:56:00;;;;;;;19.30;9.63;;;;;;;-145.03;100.00;76569.84;5045448;28;20202;-74
2023/03/10 00:58:29;;;;;;;16.37;8.63;;;;;;;-145.03;100.00;76569.84;5044643;28;20535;-73
2023/03/10 01:00:58;;;;;;;16.83;8.73;;;;;;;-145.03;100.00;76565.84;5048774;28;20293;-73
2023/03/10 01:03:25;;;;;;;19.97;10.10;;;;;;;-145.03;100.00;76563.84;5047248;28;20514;-73
2023/03/10 01:05:52;;;;;;;16.47;9.50;;;;;;;-145.03;100.00;76559.84;5060218;28;20199;-72
2023/03/10 01:08:20;;;;;;;20.87;9.73;;;;;;;-145.03;100.00;76553.88;5045768;28;20318;-73
2023/03/10 01:10:48;;;;;;;18.67;9.40;;;;;;;-145.03;100.00;76549.88;5048539;28;20211;-74
2023/03/10 01:13:17;;;;;;;19.23;9.77;;;;;;;-145.03;100.00;76551.88;5043099;28;20206;-74
2023/03/10 01:15:46;;;;;;;18.43;9.33;;;;;;;-145.03;100.00;76547.88;5062721;28;20199;-73
2023/03/10 01:18:15;;;;;;;17.10;8.80;;;;;;;-145.03;100.00;76545.88;5042111;28;20314;-71
2023/03/10 01:20:41;;;;;;;17.00;8.97;;;;;;;-145.03;100.00;76541.88;5045069;28;20333;-73
2023/03/10 01:23:07;;;;;;;19.93;9.57;;;;;;;-145.03;100.00;76539.91;5050217;28;20235;-74
2023/03/10 01:25:34;;;;;;;18.27;9.90;;;;;;;-145.03;100.00;76537.91;5045990;28;20825;-72
2023/03/10 01:28:00;;;;;;;16.17;8.17;;;;;;;-145.03;100.00;76533.91;5044930;28;20802;-74
2023/03/10 01:30:27;;;;;;;19.17;9.40;;;;;;;-145.03;100.00;76527.91;5048004;28;20191;-73
2023/03/10 01:32:53;;;;;;;18.60;9.33;;;;;;;-145.03;100.00;76525.91;5044558;28;20697;-72
2023/03/10 01:35:21;;;;;;;17.70;9.47;;;;;;;-145.03;100.00;76521.94;5038899;28;20205;-72
2023/03/10 01:37:48;;;;;;;23.03;10.20;;;;;;;-145.03;100.00;76509.97;5046659;28;20613;-74
2023/03/10 01:40:17;;;;;;;20.67;10.30;;;;;;;-145.03;100.00;76509.97;5042094;28;20621;-74
2023/03/10 01:42:44;;;;;;;20.13;9.87;;;;;;;-145.03;100.00;76505.97;5061603;28;20199;-73
2023/03/10 01:45:49;;;;;;;17.73;9.97;;;;;;;-145.03;100.00;76494.00;5042394;28;20688;-73
2023/03/10 01:48:19;;;;;;;16.23;8.37;;;;;;;-145.03;100.00;76499.97;5061140;28;20219;-72
2023/03/10 01:50:53;;;;;;;20.37;9.30;;;;;;;-145.03;100.00;76488.00;5048190;28;20301;-72
2023/03/10 01:53:21;;;;;;;18.13;9.37;;;;;;;-145.03;100.00;76488.00;5061491;28;20214;-73
2023/03/10 01:55:51;;;;;;;17.07;8.87;;;;;;;-145.03;100.00;76480.00;5050773;28;20203;-73
2023/03/10 01:58:21;;;;;;;19.47;9.50;;;;;;;-145.03;100.00;76474.03;5037765;28;20224;-73
2023/03/10 02:00:48;;;;;;;19.73;9.73;;;;;;;-145.03;100.00;76464.03;5060650;28;20282;-74
2023/03/10 02:03:18;;;;;;;20.83;9.47;;;;;;;-145.03;100.00;76462.06;5055838;28;20197;-73
2023/03/10 02:05:48;;;;;;;18.70;9.80;;;;;;;-145.03;100.00;76456.06;5042378;28;20233;-73
2023/03/10 02:08:18;;;;;;;17.67;8.93;;;;;;;-145.03;100.00;76452.06;5056325;28;20224;-71
2023/03/10 02:10:45;;;;;;;18.37;9.27;;;;;;;-145.03;100.00;76438.09;5042731;28;20199;-73
2023/03/10 02:13:11;;;;;;;16.37;9.20;;;;;;;-145.03;100.00;76432.13;5043683;28;20675;-71
2023/03/10 02:15:39;;;;;;;16.80;8.77;;;;;;;-145.03;100.00;76432.13;5062621;28;20344;-74
2023/03/10 02:18:10;;;;;;;19.30;9.57;;;;;;;-145.03;100.00;76432.13;5045914;28;20223;-74
2023/03/10 02:20:40;;;;;;;20.37;9.37;;;;;;;-145.03;100.00;76420.13;5042060;28;20204;-73
2023/03/10 02:23:07;;;;;;;14.60;8.37;;;;;;;-145.03;100.00;76420.13;5046326;28;20224;-73
2023/03/10 02:25:42;;;;;;;18.97;9.23;;;;;;;-145.03;100.00;76414.16;5063887;28;20321;-74
2023/03/10 02:28:11;;;;;;;15.93;8.30;;;;;;;-145.03;100.00;76408.16;5063671;28;20306;-73
2023/03/10 02:30:40;;;;;;;19.60;9.13;;;;;;;-145.03;100.00;76404.16;5042899;28;20195;-73
2023/03/10 02:33:10;;;;;;;17.70;9.17;;;;;;;-145.03;100.00;76398.19;5054432;28;20200;-74
2023/03/10 02:35:37;;;;;;;14.70;8.60;;;;;;;-145.03;100.00;76390.19;5043851;28;20269;-74
2023/03/10 02:38:08;;;;;;;16.73;9.07;;;;;;;-145.03;100.00;76382.22;5048120;28;20226;-74
2023/03/10 02:40:39;;;;;;;15.23;8.27;;;;;;;-145.03;100.00;76374.22;5045378;28;20609;-71
2023/03/10 02:43:16;;;;;;;15.67;8.07;;;;;;;-145.03;100.00;76372.25;5045490;28;20604;-74
2023/03/10 02:45:45;;;;;;;17.97;9.77;;;;;;;-145.03;100.00;76358.28;5043289;28;20631;-72
2023/03/10 02:48:14;;;;;;;15.30;7.93;;;;;;;-145.03;100.00;76354.28;5049565;28;20215;-72
2023/03/10 02:50:45;;;;;;;14.40;7.90;;;;;;;-145.03;100.00;76350.28;5061834;28;20226;-73
2023/03/10 02:53:16;;;;;;;17.13;7.40;;;;;;;-145.03;100.00;76342.31;5060144;28;20794;-74
2023/03/10 02:55:42;;;;;;;11.40;7.17;;;;;;;-145.03;100.00;76332.31;5048673;28;20329;-74
2023/03/10 02:58:11;;;;;;;14.20;7.23;;;;;;;-145.03;100.00;76320.34;5060025;28;20239;-73
2023/03/10 03:00:38;;;;;;;16.70;8.23;;;;;;;-145.03;100.00;76308.38;5048130;28;20199;-73
2023/03/10 03:03:08;;;;;;;14.63;7.30;;;;;;;-145.03;100.00;76292.41;5060563;28;20910;-74
2023/03/10 03:05:35;;;;;;;12.43;7.33;;;;;;;-145.03;100.00;76282.44;5042406;28;20306;-74
2023/03/10 03:08:02;;;;;;;14.07;6.63;;;;;;;-145.03;100.00;76268.44;5038428;28;20850;-74
2023/03/10 03:10:29;;;;;;;15.63;7.30;;;;;;;-145.03;100.00;76250.50;5045173;28;20688;-72
2023/03/10 03:12:56;;;;;;;14.57;7.07;;;;;;;-145.03;100.00;76248.50;5059762;28;20256;-72
2023/03/10 03:15:25;;;;;;;10.67;6.37;;;;;;;-145.03;100.00;76234.53;5044373;28;20196;-74
2023/03/10 03:17:53;;;;;;;10.63;5.73;;;;;;;-145.03;100.00;76236.53;5059280;28;20293;-73
2023/03/10 03:20:21;;;;;;;9.27;6.33;;;;;;;-145.03;100.00;76228.53;5049561;28;20195;-72
2023/03/10 03:22:49;;;;;;;13.83;6.30;;;;;;;-145.03;100.00;76218.56;5064402;28;20314;-72
2023/03/10 03:25:17;;;;;;;10.47;5.37;;;;;;;-145.03;100.00;76212.56;5056866;28;20195;-72
2023/03/10 03:27:45;;;;;;;13.23;5.20;;;;;;;-145.03;100.00;76194.59;5045590;28;20210;-74
2023/03/10 03:30:15;;;;;;;10.07;5.93;;;;;;;-145.03;100.00;76182.63;5046529;28;20646;-74
2023/03/10 03:32:43;;;;;;;9.83;4.97;;;;;;;-145.03;100.00;76178.66;5058211;28;20283;-74
2023/03/10 03:35:13;;;;;;;7.77;4.67;;;;;;;-145.03;100.00;76168.66;5042750;28;20207;-71
2023/03/10 03:37:40;;;;;;;8.97;4.87;;;;;;;-145.03;100.00;76162.69;5059015;28;20219;-74
2023/03/10 03:40:12;;;;;;;9.87;4.80;;;;;;;-145.03;100.00;76148.72;5050613;28;20567;-71
2023/03/10 03:42:40;;;;;;;11.10;4.80;;;;;;;-145.03;100.00;76130.75;5064524;28;20215;-74
2023/03/10 03:45:08;;;;;;;8.40;4.33;;;;;;;-145.03;100.00;76118.78;5050049;28;20587;-74
2023/03/10 03:47:34;;;;;;;9.80;4.23;;;;;;;-145.03;100.00;76090.84;5064050;28;20219;-74
2023/03/10 03:50:05;;;;;;;14.33;4.40;;;;;;;-145.03;100.00;76054.91;5047748;28;20198;-72
2023/03/10 03:52:32;;;;;;;5.93;3.37;;;;;;;-145.03;100.00;76034.94;5041269;28;20186;-73
2023/03/10 03:54:58;;;;;;;7.27;3.13;;;;;;;-145.03;100.00;76018.97;5042045;28;20189;-73
2023/03/10 03:57:26;;;;;;;7.03;3.07;;;;;;;-145.03;100.00;75975.09;5044355;28;20225;-73
2023/03/10 03:59:52;;;;;;;7.33;3.20;;;;;;;-145.03;100.00;75941.16;5048818;28;20207;-72
2023/03/10 04:02:19;;;;;;;6.83;2.77;;;;;;;-145.03;100.00;75937.16;5040759;28;20212;-72
2023/03/10 04:04:46;;;;;;;7.90;2.73;;;;;;;-145.03;100.00;75917.22;5041282;28;20192;-72
2023/03/10 04:07:16;;;;;;;8.37;2.60;;;;;;;-145.03;100.00;75903.25;5044323;28;20653;-74
2023/03/10 04:09:44;;;;;;;10.00;3.13;;;;;;;-145.03;100.00;75881.28;5058966;28;20191;-71
2023/03/10 04:12:11;;;;;;;6.23;2.73;;;;;;;-145.03;100.00;75871.31;5058844;28;20217;-72
2023/03/10 04:14:41;;;;;;;7.30;3.10;;;;;;;-145.03;100.00;75867.31;5052276;28;20494;-74
2023/03/10 04:17:07;;;;;;;5.80;2.60;;;;;;;-145.03;100.00;75857.34;5047786;28;20202;-74
2023/03/10 04:19:34;;;;;;;6.53;3.10;;;;;;;-145.03;100.00;75843.38;5061703;28;20207;-73
2023/03/10 04:22:05;;;;;;;4.67;2.60;;;;;;;-145.03;100.00;75829.41;5045377;28;20242;-74
2023/03/10 04:24:38;;;;;;;6.10;2.93;;;;;;;-145.03;100.00;75827.41;5058929;28;20211;-74
2023/03/10 04:27:04;;;;;;;10.90;3.43;;;;;;;-145.03;100.00;75825.41;5043435;28;20202;-73
2023/03/10 04:29:31;;;;;;;9.73;3.37;;;;;;;-145.03;100.00;75809.44;5037165;28;20191;-73
2023/03/10 04:31:59;;;;;;;11.00;3.40;;;;;;;-145.03;100.00;75805.44;5058978;28;20206;-74
2023/03/10 04:34:26;;;;;;;10.30;3.27;;;;;;;-145.03;100.00;75799.47;5042369;28;20199;-74
2023/03/10 04:36:53;;;;;;;6.37;3.67;;;;;;;-145.03;100.00;75803.47;5042164;28;20199;-73
2023/03/10 04:39:19;;;;;;;10.10;3.57;;;;;;;-145.03;100.00;75789.50;5058158;28;20213;-74
2023/03/10 04:41:48;;;;;;;10.83;3.23;;;;;;;-145.03;100.00;75785.50;5045430;28;20207;-74
2023/03/10 04:44:14;;;;;;;10.73;4.63;;;;;;;-145.03;100.00;75781.50;5042302;28;20200;-74
2023/03/10 04:46:41;;;;;;;6.90;4.20;;;;;;;-145.03;100.00;75773.53;5051881;28;20290;-72
2023/03/10 04:49:08;;;;;;;8.00;4.53;;;;;;;-145.03;100.00;75775.53;5059275;28;20227;-71
2023/03/10 04:51:34;;;;;;;11.97;4.43;;;;;;;-145.03;100.00;75775.53;5039422;28;20253;-74
2023/03/10 04:54:01;;;;;;;9.73;3.60;;;;;;;-145.03;100.00;75777.50;5040486;28;20196;-74
2023/03/10 04:56:30;;;;;;;10.83;3.37;;;;;;;-145.03;100.00;75771.53;5039858;28;20196;-74
2023/03/10 04:58:58;;;;;;;6.90;2.90;;;;;;;-145.03;100.00;75765.53;5041622;28;20223;-73
2023/03/10 05:01:28;;;;;;;4.30;3.00;;;;;;;-145.03;100.00;75763.53;5046074;28;20204;-72
2023/03/10 05:03:58;;;;;;;7.87;3.20;;;;;;;-145.03;100.00;75759.56;5058467;28;20199;-73
2023/03/10 05:06:25;;;;;;;8.57;3.70;;;;;;;-145.03;100.00;75757.56;5054898;28;21229;-74
2023/03/10 05:09:03;;;;;;;5.93;2.57;;;;;;;-145.03;100.00;75747.59;5040659;28;20229;-74
2023/03/10 05:11:31;;;;;;;5.07;2.90;;;;;;;-145.03;100.00;75747.59;5044780;28;20196;-73
2023/03/10 05:13:59;;;;;;;8.57;2.97;;;;;;;-145.03;100.00;75741.59;5034377;28;20195;-74
2023/03/10 05:16:25;;;;;;;7.47;3.40;;;;;;;-145.03;100.00;75733.63;5038286;28;20200;-74
2023/03/10 05:18:53;;;;;;;9.97;2.97;;;;;;;-145.03;100.00;75723.63;5037079;28;20223;-74
2023/03/10 05:21:24;;;;;;;6.67;2.90;;;;;;;-145.03;100.00;75711.66;5052013;28;20209;-74
2023/03/10 05:23:53;;;;;;;4.97;3.07;;;;;;;-145.03;100.00;75719.66;5038389;28;20294;-71
2023/03/10 05:26:20;;;;;;;13.60;6.77;;;;;;;-145.03;100.00;75707.66;5034785;28;20255;-74
2023/03/10 05:28:47;;;;;;;11.73;5.93;;;;;;;-145.03;100.00;75713.66;5052394;28;20640;-74
2023/03/10 05:31:24;;;;;;;12.20;6.20;;;;;;;-145.03;100.00;75707.66;5055136;28;20295;-72
2023/03/10 05:33:53;;;;;;;8.67;2.57;;;;;;;-145.03;100.00;75693.69;5045272;28;20194;-74
2023/03/10 05:36:20;;;;;;;8.23;3.37;;;;;;;-145.03;100.00;75683.72;5035987;28;20227;-73
2023/03/10 05:38:48;;;;;;;11.33;4.23;;;;;;;-145.03;100.00;75677.72;5040088;28;20302;-73
2023/03/10 05:41:17;;;;;;;8.90;3.37;;;;;;;-145.03;100.00;75681.72;5035418;28;20705;-74
2023/03/10 05:43:46;;;;;;;12.63;6.17;;;;;;;-145.03;100.00;75671.75;5053652;28;20212;-75
2023/03/10 05:46:15;;;;;;;13.97;5.20;;;;;;;-145.03;100.00;75673.75;5037048;28;20200;-74
2023/03/10 05:48:47;;;;;;;9.83;3.87;;;;;;;-145.03;100.00;75669.75;5050673;28;20711;-73
2023/03/10 05:51:13;;;;;;;10.43;3.20;;;;;;;-145.03;100.00;75669.75;5040046;28;20439;-73
2023/03/10 05:53:41;;;;;;;7.37;3.00;;;;;;;-145.03;100.00;75669.75;5052528;28;20195;-74
2023/03/10 05:56:13;;;;;;;9.60;3.83;;;;;;;-145.03;100.00;75669.75;5047582;28;20195;-72
2023/03/10 05:58:42;;;;;;;8.87;3.27;;;;;;;-145.03;100.00;75663.78;5036530;28;20719;-72
2023/03/10 06:01:10;;;;;;;9.57;3.70;;;;;;;-145.03;100.00;75659.78;5032810;28;20211;-73
2023/03/10 06:03:37;;;;;;;5.67;2.87;;;;;;;-145.03;100.00;75653.78;5040823;28;20219;-71
2023/03/10 06:06:07;;;;;;;5.93;3.00;;;;;;;-145.03;100.00;75645.81;5033817;28;20204;-73
2023/03/10 06:08:34;;;;;;;6.30;2.90;;;;;;;-145.03;100.00;75649.81;5042055;28;20207;-74
2023/03/10 06:11:00;;;;;;;8.23;2.90;;;;;;;-145.03;100.00;75649.81;5040431;28;20210;-73
2023/03/10 06:13:26;;;;;;;5.00;2.47;;;;;;;-145.03;100.00;75643.81;5036372;28;20242;-74
2023/03/10 06:15:55;;;;;;;5.50;2.87;;;;;;;-145.03;100.00;75645.81;5042249;28;20195;-74
2023/03/10 06:18:22;;;;;;;5.53;3.30;;;;;;;-145.03;100.00;75643.81;5038295;28;20221;-74
2023/03/10 06:20:48;;;;;;;6.87;3.33;;;;;;;-145.03;100.00;75627.84;5039019;28;20198;-75
2023/03/10 06:23:17;;;;;;;5.43;2.77;;;;;;;-145.03;100.00;75635.84;5039742;28;20664;-74
2023/03/10 06:25:44;;;;;;;6.87;2.63;;;;;;;-145.03;100.00;75629.84;5040631;28;20460;-74
2023/03/10 06:28:11;;;;;;;11.40;2.90;;;;;;;-145.03;100.00;75631.84;5039110;28;20219;-72
2023/03/10 06:30:39;;;;;;;5.23;2.97;;;;;;;-145.03;100.00;75625.84;5044773;28;20232;-73
2023/03/10 06:33:05;;;;;;;8.37;2.73;;;;;;;-145.03;100.00;75625.84;5032854;28;20538;-73
2023/03/10 06:35:32;;;;;;;3.80;2.30;;;;;;;-145.03;100.00;75619.88;5048052;28;20199;-74
2023/03/10 06:37:59;;;;;;;4.27;2.40;;;;;;;-145.03;100.00;75619.88;5043373;28;20842;-74
2023/03/10 06:40:26;;;;;;;5.87;2.70;;;;;;;-145.03;100.00;75621.88;5039133;28;20191;-71
2023/03/10 06:42:53;;;;;;;7.27;2.90;;;;;;;-145.03;100.00;75621.88;5043467;28;20227;-74
2023/03/10 06:45:19;;;;;;;3.20;2.53;;;;;;;-145.03;100.00;75623.84;5049687;28;20203;-71
2023/03/10 06:47:45;;;;;;;4.00;2.70;;;;;;;-145.03;100.00;75621.88;5046416;28;20212;-72
2023/03/10 06:50:15;;;;;;;6.53;3.23;;;;;;;-145.03;100.00;75621.88;5040089;28;20564;-74
2023/03/10 06:52:42;;;;;;;3.40;2.30;;;;;;;-145.03;100.00;75619.88;5044442;28;20203;-73
2023/03/10 06:55:09;;;;;;;10.27;5.20;;;;;;;-145.03;100.00;75613.88;5055596;28;20282;-74
2023/03/10 06:57:37;;;;;;;6.97;2.67;;;;;;;-145.03;100.00;75611.88;5050065;28;20233;-76
2023/03/10 07:00:06;;;;;;;8.30;4.00;;;;;;;-145.03;100.00;75611.88;5044142;28;20192;-73
2023/03/10 07:02:33;;;;;;;7.60;5.07;;;;;;;-145.03;100.00;75613.88;5044172;28;20607;-73
2023/03/10 07:04:59;;;;;;;5.37;4.00;;;;;;;-145.03;100.00;75601.91;5044967;28;20278;-74
2023/03/10 07:07:26;;;;;;;3.77;2.53;;;;;;;-145.03;100.00;75607.91;5044685;28;20231;-73
2023/03/10 07:09:52;;;;;;;5.97;2.70;;;;;;;-145.03;100.00;75601.91;5046580;28;20204;-76
2023/03/10 07:12:19;;;;;;;6.60;3.07;;;;;;;-145.03;100.00;75605.91;5051711;28;20639;-73
2023/03/10 07:14:47;;;;;;;4.30;2.30;;;;;;;-145.03;100.00;75603.91;5051951;28;20201;-72
2023/03/10 07:17:13;;;;;;;4.93;2.83;;;;;;;-145.03;100.00;75597.91;5065843;28;20798;-72
2023/03/10 07:19:40;;;;;;;6.60;2.87;;;;;;;-145.03;100.00;75589.94;5056214;28;20191;-72
2023/03/10 07:22:07;;;;;;;4.50;2.70;;;;;;;-145.03;100.00;75587.94;5048299;28;20689;-73
2023/03/10 07:24:33;;;;;;;6.20;4.30;;;;;;;-145.03;100.00;75589.94;5050699;28;20239;-73
2023/03/10 07:27:01;;;;;;;6.17;3.10;;;;;;;-145.03;100.00;75591.94;5054098;28;20203;-73
2023/03/10 07:29:27;;;;;;;4.37;3.20;;;;;;;-145.03;100.00;75591.94;5047758;28;20204;-74
2023/03/10 07:31:56;;;;;;;5.93;3.90;;;;;;;-145.03;100.00;75581.94;5044121;28;20544;-72
2023/03/10 07:34:23;;;;;;;10.93;3.53;;;;;;;-145.03;100.00;75575.97;5051673;28;20198;-72
2023/03/10 07:36:49;;;;;;;7.97;3.77;;;;;;;-145.03;100.00;75571.97;5051948;28;20266;-74
2023/03/10 07:39:16;;;;;;;6.43;3.20;;;;;;;-145.03;100.00;75562.00;5047665;28;20229;-72
2023/03/10 07:41:43;;;;;;;7.27;3.43;;;;;;;-145.03;100.00;75558.00;5053391;28;20218;-75
2023/03/10 07:44:10;;;;;;;4.40;2.30;;;;;;;-145.03;100.00;75550.03;5049636;28;20210;-72
2023/03/10 07:46:36;;;;;;;2.50;1.70;;;;;;;-145.03;100.00;75546.03;5045361;28;20187;-73
2023/03/10 07:49:04;;;;;;;3.40;2.17;;;;;;;-145.03;100.00;75544.03;5046950;28;20222;-72
2023/03/10 07:51:31;;;;;;;4.07;2.63;;;;;;;-145.03;100.00;75536.06;5049697;28;20566;-74
2023/03/10 07:53:57;;;;;;;4.63;2.20;;;;;;;-145.03;100.00;75530.06;5056520;28;20677;-73
2023/03/10 07:56:24;;;;;;;5.77;1.53;;;;;;;-145.03;100.00;75526.06;5048525;28;20757;-73
2023/03/10 07:58:50;;;;;;;4.77;1.67;;;;;;;-145.03;100.00;75522.09;5047243;28;20699;-73
2023/03/10 08:01:20;;;;;;;4.97;1.83;;;;;;;-145.03;100.00;75518.09;5068994;28;20197;-72
2023/03/10 08:03:47;;;;;;;1.97;1.73;;;;;;;-145.03;100.00;75512.13;5065404;28;20292;-73
2023/03/10 08:06:19;;;;;;;1.73;1.63;;;;;;;-145.03;100.00;75504.13;5047685;28;20713;-73
2023/03/10 08:08:46;;;;;;;3.23;1.50;;;;;;;-145.03;100.00;75494.16;5050868;28;20652;-72
2023/03/10 08:11:12;;;;;;;2.07;1.57;;;;;;;-145.03;100.00;75482.19;5062172;28;20699;-72
2023/03/10 08:13:39;;;;;;;2.83;1.80;;;;;;;-145.03;100.00;75476.19;5046513;28;20194;-74
2023/03/10 08:16:07;;;;;;;4.17;1.60;;;;;;;-145.03;100.00;75472.19;5047940;28;20614;-73
2023/03/10 08:18:34;;;;;;;2.83;1.80;;;;;;;-145.03;100.00;75460.22;5049040;28;20214;-72
2023/03/10 08:21:04;;;;;;;2.93;1.60;;;;;;;-145.03;100.00;75460.22;5046195;28;20203;-73
2023/03/10 08:23:32;;;;;;;6.80;4.10;;;;;;;-145.03;100.00;75454.25;5049012;28;20233;-72
2023/03/10 08:26:00;;;;;;;10.03;7.23;;;;;;;-145.03;100.00;75440.28;5051085;28;20195;-73
2023/03/10 08:28:28;;;;;;;10.03;6.00;;;;;;;-145.03;100.00;75430.31;5053661;28;20302;-74
2023/03/10 08:30:55;;;;;;;3.10;2.23;;;;;;;-145.03;100.00;75430.31;5045569;28;20247;-75
2023/03/10 08:33:22;;;;;;;2.87;2.03;;;;;;;-145.03;100.00;75420.31;5051688;28;20200;-72
2023/03/10 08:35:48;;;;;;;2.47;2.00;;;;;;;-145.03;100.00;75414.34;5046315;28;20210;-72
2023/03/10 08:38:15;;;;;;;2.57;1.80;;;;;;;-145.03;100.00;75412.34;5047726;28;20607;-74
2023/03/10 08:40:42;;;;;;;2.47;1.80;;;;;;;-145.03;100.00;75402.38;5042122;28;20219;-73
2023/03/10 08:43:09;;;;;;;2.23;1.50;;;;;;;-145.03;100.00;75392.38;5049618;28;20219;-75
2023/03/10 08:45:35;;;;;;;1.60;1.40;;;;;;;-145.03;100.00;75388.41;5061075;28;20199;-73
2023/03/10 08:48:02;;;;;;;2.83;1.50;;;;;;;-145.03;100.00;75382.41;5050266;28;20238;-74
2023/03/10 08:50:28;;;;;;;2.73;1.73;;;;;;;-145.03;100.00;75378.41;5052233;28;20283;-72
2023/03/10 08:52:54;;;;;;;2.07;1.53;;;;;;;-145.03;100.00;75370.44;5048412;28;20202;-72
2023/03/10 08:55:21;;;;;;;3.20;2.00;;;;;;;-145.03;100.00;75358.47;5044485;28;20195;-73
2023/03/10 08:57:48;;;;;;;1.50;1.40;;;;;;;-145.03;100.00;75340.50;5048186;28;21733;-72
2023/03/10 09:00:16;;;;;;;2.17;1.60;;;;;;;-145.03;100.00;75330.53;5049633;28;20294;-72
2023/03/10 09:02:43;;;;;;;2.17;1.60;;;;;;;-145.03;100.00;75320.56;5050939;28;20200;-73
2023/03/10 09:05:10;;;;;;;3.03;1.40;;;;;;;-145.03;100.00;75314.56;5052315;28;20199;-73
2023/03/10 09:07:36;;;;;;;1.10;1.00;;;;;;;-145.03;100.00;75290.63;5050373;28;20238;-74
2023/03/10 09:10:04;;;;;;;2.90;1.40;;;;;;;-145.03;100.00;75278.66;5047717;28;20203;-73
2023/03/10 09:12:31;;;;;;;1.87;1.77;;;;;;;-145.03;100.00;75266.69;5042862;28;20595;-76
2023/03/10 09:15:00;;;;;;;1.60;1.47;;;;;;;-145.03;100.00;75260.69;5044343;28;20211;-73
2023/03/10 09:17:26;;;;;;;1.67;1.27;;;;;;;-145.03;100.00;75252.72;5044626;28;20251;-73
2023/03/10 09:19:53;;;;;;;3.60;1.50;;;;;;;-145.03;100.00;75246.72;5051871;28;20683;-74
2023/03/10 09:22:19;;;;;;;2.30;1.10;;;;;;;-145.03;100.00;75228.78;5042889;28;20209;-73
2023/03/10 09:24:46;;;;;;;2.77;1.07;;;;;;;-145.03;100.00;75220.78;5046541;28;20218;-73
2023/03/10 09:27:12;;;;;;;2.50;1.20;;;;;;;-145.03;100.00;75200.84;5044504;28;20731;-73
2023/03/10 09:29:38;;;;;;;0.87;0.87;;;;;;;-145.03;100.00;75184.88;5069421;28;20201;-72
2023/03/10 09:32:07;;;;;;;0.57;0.57;;;;;;;-145.03;100.00;75172.91;5069038;28;20408;-72
2023/03/10 09:34:34;;;;;;;0.77;0.67;;;;;;;-145.03;100.00;75150.94;5052494;28;20204;-74
2023/03/10 09:37:00;;;;;;;1.07;0.90;;;;;;;-145.03;100.00;75138.97;5045724;28;20647;-72
2023/03/10 09:39:27;;;;;;;1.27;0.90;;;;;;;-145.03;100.00;75125.00;5050635;28;20201;-73
2023/03/10 09:42:23;;;;;;;0.97;0.83;;;;;;;-145.03;100.00;75109.06;5044964;28;20902;-73
2023/03/10 09:44:58;;;;;;;0.97;0.80;;;;;;;-145.03;100.00;75097.09;5042182;28;20235;-73
2023/03/10 09:47:40;;;;;;;1.23;0.70;;;;;;;-145.03;100.00;75099.06;5063164;28;20233;-73
2023/03/10 09:50:22;;;;;;;0.47;0.47;;;;;;;-145.03;100.00;75099.06;5040956;28;20200;-73
2023/03/10 09:52:58;;;;;;;0.70;0.57;;;;;;;-145.03;100.00;75099.06;5044810;28;20560;-74
2023/03/10 09:55:28;;;;;;;0.53;0.47;;;;;;;-145.03;100.00;75095.09;5044832;28;20209;-74
2023/03/10 09:57:56;;;;;;;0.63;0.53;;;;;;;-145.03;100.00;75099.06;5044685;28;20233;-75
2023/03/10 10:00:26;;;;;;;0.30;0.30;;;;;;;-145.03;100.00;75093.09;5047516;28;20195;-74
2023/03/10 10:03:02;;;;;;;1.23;0.53;;;;;;;-145.03;100.00;75087.09;5048417;28;20194;-73
2023/03/10 10:05:32;;;;;;;1.20;0.67;;;;;;;-145.03;100.00;75091.09;5052149;28;20202;-74
2023/03/10 10:08:02;;;;;;;0.40;0.40;;;;;;;-145.03;100.00;75093.09;5041266;28;20245;-73
2023/03/10 10:10:31;;;;;;;0.70;0.40;;;;;;;-145.03;100.00;75081.13;5043608;28;20242;-73
2023/03/10 10:13:03;;;;;;;0.30;0.30;;;;;;;-145.03;100.00;75057.19;5050858;28;20231;-74
2023/03/10 10:15:30;;;;;;;2.13;0.67;;;;;;;-145.03;100.00;75039.22;5066043;28;20293;-74
2023/03/10 10:18:08;;;;;;;0.93;0.63;;;;;;;-145.03;100.00;75027.25;5045322;28;20345;-73
2023/03/10 10:20:38;;;;;;;0.70;0.50;;;;;;;-145.03;100.00;75003.31;5049262;28;20199;-74
2023/03/10 10:23:15;;;;;;;0.77;0.40;;;;;;;-145.03;100.00;74971.38;5044082;28;20195;-72
2023/03/10 10:25:42;;;;;;;2.07;0.70;;;;;;;-145.03;100.00;74957.41;5048893;28;20229;-74
2023/03/10 10:28:19;;;;;;;0.70;0.47;;;;;;;-145.03;100.00;74951.44;5043239;28;20227;-74
2023/03/10 10:30:46;;;;;;;0.50;0.50;;;;;;;-145.03;100.00;74949.44;5062899;28;20194;-74
2023/03/10 10:33:15;;;;;;;0.70;0.70;;;;;;;-145.03;100.00;74943.44;5049497;28;20586;-73
2023/03/10 10:35:44;;;;;;;1.50;0.90;;;;;;;-145.03;100.00;74941.47;5050711;28;20191;-72
2023/03/10 10:38:28;;;;;;;0.67;0.60;;;;;;;-145.03;100.00;74915.53;5045291;28;20743;-73
2023/03/10 10:41:01;;;;;;;0.90;0.50;;;;;;;-145.03;100.00;74915.53;5048029;28;20197;-74
2023/03/10 10:43:28;;;;;;;0.60;0.60;;;;;;;-145.03;100.00;74913.53;5048298;28;20212;-74
2023/03/10 10:45:56;;;;;;;0.73;0.57;;;;;;;-145.03;100.00;74915.53;5045969;28;20199;-73
2023/03/10 10:48:39;;;;;;;2.87;0.60;;;;;;;-145.03;100.00;74921.50;5055687;28;20553;-73
2023/03/10 10:51:18;;;;;;;2.17;0.90;;;;;;;-145.03;100.00;74927.50;5048500;28;20206;-75
2023/03/10 10:53:45;;;;;;;0.60;0.60;;;;;;;-145.03;100.00;74933.47;5050727;28;20660;-73
2023/03/10 10:56:14;;;;;;;1.17;0.73;;;;;;;-145.03;100.00;74935.47;5054213;28;20211;-73
2023/03/10 10:58:43;;;;;;;0.60;0.57;;;;;;;-145.03;100.00;74917.50;5054708;28;20226;-73
2023/03/10 11:01:11;;;;;;;2.10;0.60;;;;;;;-145.03;100.00;74913.53;5061731;28;20286;-75
2023/03/10 11:03:41;;;;;;;0.57;0.57;;;;;;;-145.03;100.00;74899.56;5063224;28;20340;-75
2023/03/10 11:06:23;;;;;;;2.00;0.77;;;;;;;-145.03;100.00;74887.59;5048730;28;20225;-73
2023/03/10 11:08:51;;;;;;;0.77;0.40;;;;;;;-145.03;100.00;74871.63;5049229;28;20227;-74
2023/03/10 11:11:23;;;;;;;0.50;0.50;;;;;;;-145.03;100.00;74851.69;5061294;28;20222;-73
2023/03/10 11:14:09;;;;;;;1.93;0.90;;;;;;;-145.03;100.00;74825.75;5049306;28;20195;-73